Time;durP1;ratioP1;P1;durP2;ratioP2;P2;SDS_P1;SDS_P2;PMS_P1;PMS_P2;Temp;Humidity;BMP_temperature;BMP_pressure;BME280_temperature;BME280_humidity;BME280_pressure;Samples;Min_cycle;Max_cycle;Signal;HPM_P1;HPM_P2
2022/07/15 00:00:57;;;;;;;;;;;26.80;34.40;;;;;;1570322;74;685;-66
2022/07/15 00:02:59;;;;;;;;;;;26.70;34.40;;;;;;1572144;74;1154;-66
2022/07/15 00:05:01;;;;;;;;;;;26.80;34.30;;;;;;1564439;74;725;-66
2022/07/15 00:07:03;;;;;;;;;;;26.80;34.40;;;;;;1570233;74;706;-66
2022/07/15 00:09:05;;;;;;;;;;;26.80;34.40;;;;;;1563430;74;1346;-66
2022/07/15 00:11:07;;;;;;;;;;;26.70;34.40;;;;;;1568993;74;681;-64
2022/07/15 00:13:09;;;;;;;;;;;26.80;34.40;;;;;;1571433;74;1179;-67
2022/07/15 00:15:11;;;;;;;;;;;26.90;34.40;;;;;;1567695;74;728;-65
2022/07/15 00:17:13;;;;;;;;;;;26.80;34.30;;;;;;1576310;74;1948;-66
2022/07/15 00:19:15;;;;;;;;;;;26.80;34.40;;;;;;1566865;74;671;-66
2022/07/15 00:21:16;;;;;;;;;;;26.90;34.40;;;;;;1568554;74;762;-66
2022/07/15 00:23:18;;;;;;;;;;;26.80;34.40;;;;;;1568752;74;1112;-66
2022/07/15 00:25:20;;;;;;;;;;;26.80;34.40;;;;;;1576499;74;633;-66
2022/07/15 00:27:22;;;;;;;;;;;26.80;34.50;;;;;;1571668;74;718;-71
2022/07/15 00:29:25;;;;;;;;;;;26.80;34.50;;;;;;1568460;74;711;-71
2022/07/15 00:31:28;;;;;;;;;;;26.80;34.50;;;;;;1564619;74;852;-68
2022/07/15 00:33:30;;;;;;;;;;;26.90;34.50;;;;;;1570517;74;1147;-67
2022/07/15 00:35:32;;;;;;;;;;;26.80;34.60;;;;;;1572054;74;778;-68
2022/07/15 00:37:34;;;;;;;;;;;26.80;34.50;;;;;;1571604;74;1946;-68
2022/07/15 00:39:36;;;;;;;;;;;26.90;34.50;;;;;;1568912;74;823;-68
2022/07/15 00:41:39;;;;;;;;;;;26.80;34.60;;;;;;1573321;75;1159;-67
2022/07/15 00:43:40;;;;;;;;;;;26.80;34.50;;;;;;1572024;74;740;-68
2022/07/15 00:45:42;;;;;;;;;;;26.80;34.50;;;;;;1570785;74;810;-67
2022/07/15 00:47:46;;;;;;;;;;;26.80;34.50;;;;;;1572303;74;726;-68
2022/07/15 00:49:48;;;;;;;;;;;26.80;34.60;;;;;;1565049;74;1665;-69
2022/07/15 00:51:53;;;;;;;;;;;26.80;34.70;;;;;;1561661;74;1139;-67
2022/07/15 00:53:55;;;;;;;;;;;26.80;34.60;;;;;;1569710;74;761;-67
2022/07/15 00:55:57;;;;;;;;;;;26.80;34.70;;;;;;1568639;75;1944;-66
2022/07/15 00:58:02;;;;;;;;;;;26.80;34.70;;;;;;1564847;74;715;-67
2022/07/15 01:00:04;;;;;;;;;;;26.80;34.70;;;;;;1559882;74;667;-67
2022/07/15 01:02:06;;;;;;;;;;;26.80;34.80;;;;;;1572453;74;1100;-67
2022/07/15 01:04:07;;;;;;;;;;;26.90;34.70;;;;;;1563912;74;1592;-66
2022/07/15 01:06:09;;;;;;;;;;;26.80;34.80;;;;;;1556891;74;593;-67
2022/07/15 01:08:11;;;;;;;;;;;26.80;34.80;;;;;;1565151;74;796;-67
2022/07/15 01:10:13;;;;;;;;;;;26.80;35.00;;;;;;1567042;75;721;-65
2022/07/15 01:12:15;;;;;;;;;;;26.80;35.00;;;;;;1576107;74;1145;-65
2022/07/15 01:14:17;;;;;;;;;;;26.80;35.00;;;;;;1566529;74;784;-65
2022/07/15 01:16:19;;;;;;;;;;;26.80;35.00;;;;;;1563706;74;1938;-65
2022/07/15 01:18:21;;;;;;;;;;;26.70;35.10;;;;;;1568265;74;671;-63
2022/07/15 01:20:22;;;;;;;;;;;26.80;35.10;;;;;;1562037;74;652;-66
2022/07/15 01:22:24;;;;;;;;;;;26.80;35.20;;;;;;1564289;74;1168;-68
2022/07/15 01:24:26;;;;;;;;;;;26.70;35.10;;;;;;1561124;74;714;-66
2022/07/15 01:26:28;;;;;;;;;;;26.90;35.20;;;;;;1566001;74;763;-66
2022/07/15 01:28:30;;;;;;;;;;;26.70;35.20;;;;;;1573759;74;740;-67
2022/07/15 01:30:32;;;;;;;;;;;26.70;35.30;;;;;;1568454;74;758;-65
2022/07/15 01:32:34;;;;;;;;;;;26.80;35.30;;;;;;1564632;74;1190;-67
2022/07/15 01:34:35;;;;;;;;;;;26.70;35.40;;;;;;1561784;74;858;-67
2022/07/15 01:36:37;;;;;;;;;;;26.80;35.50;;;;;;1571418;74;1942;-65
2022/07/15 01:38:39;;;;;;;;;;;26.70;35.50;;;;;;1563452;74;731;-66
2022/07/15 01:40:41;;;;;;;;;;;26.80;35.50;;;;;;1566736;74;685;-66
2022/07/15 01:42:44;;;;;;;;;;;26.70;35.70;;;;;;1564950;74;1160;-66
2022/07/15 01:44:45;;;;;;;;;;;26.70;35.70;;;;;;1569619;74;823;-66
2022/07/15 01:46:47;;;;;;;;;;;26.70;35.70;;;;;;1572742;74;755;-65
2022/07/15 01:51:09;;;;;;;;;;;26.70;35.80;;;;;;1571493;74;1607;-66
2022/07/15 01:53:11;;;;;;;;;;;26.70;35.70;;;;;;1564247;74;1151;-66
2022/07/15 01:55:13;;;;;;;;;;;26.80;35.80;;;;;;1562900;74;741;-66
2022/07/15 01:57:15;;;;;;;;;;;26.70;35.90;;;;;;1565694;74;1934;-65
2022/07/15 01:59:17;;;;;;;;;;;26.70;36.00;;;;;;1567634;74;717;-67
2022/07/15 02:01:19;;;;;;;;;;;26.70;36.00;;;;;;1559719;74;1616;-66
2022/07/15 02:03:21;;;;;;;;;;;26.70;36.00;;;;;;1570675;74;1109;-66
2022/07/15 02:05:23;;;;;;;;;;;26.70;36.10;;;;;;1566003;75;707;-65
2022/07/15 02:07:25;;;;;;;;;;;26.70;36.10;;;;;;1564223;74;792;-66
2022/07/15 02:09:26;;;;;;;;;;;26.70;36.20;;;;;;1563722;74;671;-66
2022/07/15 02:11:28;;;;;;;;;;;26.70;36.20;;;;;;1576547;74;790;-68
2022/07/15 02:13:30;;;;;;;;;;;26.70;36.30;;;;;;1575382;74;1120;-64
2022/07/15 02:15:33;;;;;;;;;;;26.70;36.30;;;;;;1567544;74;894;-67
2022/07/15 02:17:35;;;;;;;;;;;26.70;36.30;;;;;;1569621;75;1903;-68
2022/07/15 02:19:37;;;;;;;;;;;26.70;36.30;;;;;;1567577;74;721;-67
2022/07/15 02:21:39;;;;;;;;;;;26.70;36.40;;;;;;1565973;74;1151;-67
2022/07/15 02:23:41;;;;;;;;;;;26.70;36.40;;;;;;1564699;74;794;-67
2022/07/15 02:25:43;;;;;;;;;;;26.70;36.50;;;;;;1578880;74;713;-66
2022/07/15 02:27:44;;;;;;;;;;;26.70;36.40;;;;;;1562221;74;729;-67
2022/07/15 02:29:46;;;;;;;;;;;26.70;36.50;;;;;;1577560;74;783;-68
2022/07/15 02:31:48;;;;;;;;;;;26.70;36.50;;;;;;1563738;74;1190;-65
2022/07/15 02:33:50;;;;;;;;;;;26.70;36.50;;;;;;1566384;74;783;-68
2022/07/15 02:35:52;;;;;;;;;;;26.70;36.50;;;;;;1560112;74;790;-66
2022/07/15 02:37:54;;;;;;;;;;;26.70;36.60;;;;;;1566301;75;1927;-66
2022/07/15 02:39:56;;;;;;;;;;;26.70;36.60;;;;;;1572123;74;813;-66
2022/07/15 02:41:58;;;;;;;;;;;26.70;36.60;;;;;;1569014;74;1218;-66
2022/07/15 02:44:02;;;;;;;;;;;26.70;36.50;;;;;;1564431;74;720;-68
2022/07/15 02:46:03;;;;;;;;;;;26.70;36.50;;;;;;1563743;74;1380;-68
2022/07/15 02:48:05;;;;;;;;;;;26.70;36.60;;;;;;1567431;74;673;-70
2022/07/15 02:50:07;;;;;;;;;;;26.70;36.50;;;;;;1566863;74;736;-66
2022/07/15 02:52:09;;;;;;;;;;;26.60;36.40;;;;;;1564854;74;1090;-68
2022/07/15 02:54:11;;;;;;;;;;;26.70;36.50;;;;;;1567289;74;743;-68
2022/07/15 02:56:13;;;;;;;;;;;26.70;36.50;;;;;;1567568;74;1514;-68
2022/07/15 02:58:15;;;;;;;;;;;26.70;36.50;;;;;;1570360;74;1924;-66
2022/07/15 03:00:22;;;;;;;;;;;26.60;36.50;;;;;;1561950;74;662;-67
2022/07/15 03:02:20;;;;;;;;;;;26.70;36.40;;;;;;1566669;74;1834;-67
2022/07/15 03:04:22;;;;;;;;;;;26.70;36.50;;;;;;1566237;74;787;-68
2022/07/15 03:06:24;;;;;;;;;;;26.70;36.40;;;;;;1570519;74;747;-67
2022/07/15 03:08:26;;;;;;;;;;;26.70;36.40;;;;;;1572951;74;737;-68
2022/07/15 03:10:28;;;;;;;;;;;26.60;36.40;;;;;;1561088;74;780;-68
2022/07/15 03:12:30;;;;;;;;;;;26.60;36.40;;;;;;1560407;74;1140;-68
2022/07/15 03:14:31;;;;;;;;;;;26.70;36.30;;;;;;1567609;74;791;-68
2022/07/15 03:16:33;;;;;;;;;;;26.60;36.40;;;;;;1575823;74;790;-67
2022/07/15 03:18:35;;;;;;;;;;;26.60;36.40;;;;;;1566508;75;1929;-67
2022/07/15 03:20:37;;;;;;;;;;;26.60;36.40;;;;;;1563065;74;709;-67
2022/07/15 03:22:39;;;;;;;;;;;26.60;36.30;;;;;;1567729;74;1160;-68
2022/07/15 03:24:41;;;;;;;;;;;26.70;36.40;;;;;;1566322;74;678;-72
2022/07/15 03:26:43;;;;;;;;;;;26.70;36.30;;;;;;1566739;74;697;-68
2022/07/15 03:28:45;;;;;;;;;;;26.60;36.30;;;;;;1577532;74;748;-69
2022/07/15 03:30:47;;;;;;;;;;;26.60;36.30;;;;;;1572365;75;757;-68
2022/07/15 03:32:49;;;;;;;;;;;26.60;36.30;;;;;;1558534;74;1144;-69
2022/07/15 03:34:51;;;;;;;;;;;26.70;36.30;;;;;;1560466;74;798;-67
2022/07/15 03:36:53;;;;;;;;;;;26.70;36.30;;;;;;1564757;74;1943;-67
2022/07/15 03:38:55;;;;;;;;;;;26.60;36.30;;;;;;1573595;74;534;-66
2022/07/15 03:40:57;;;;;;;;;;;26.70;36.30;;;;;;1570458;74;713;-67
2022/07/15 03:42:59;;;;;;;;;;;26.70;36.20;;;;;;1564046;74;1196;-68
2022/07/15 03:45:01;;;;;;;;;;;26.60;36.30;;;;;;1578287;74;751;-67
2022/07/15 03:47:03;;;;;;;;;;;26.70;36.30;;;;;;1561269;74;733;-67
2022/07/15 03:49:05;;;;;;;;;;;26.70;36.30;;;;;;1571793;74;772;-67
2022/07/15 03:51:06;;;;;;;;;;;26.60;36.30;;;;;;1566312;74;735;-68
2022/07/15 03:53:09;;;;;;;;;;;26.50;36.30;;;;;;1568596;74;1701;-66
2022/07/15 03:55:11;;;;;;;;;;;26.60;36.20;;;;;;1550826;75;755;-66
2022/07/15 03:57:13;;;;;;;;;;;26.50;36.30;;;;;;1575410;74;1923;-68
2022/07/15 03:59:15;;;;;;;;;;;26.50;36.30;;;;;;1570442;74;746;-68
2022/07/15 04:01:17;;;;;;;;;;;26.50;36.30;;;;;;1562492;74;676;-67
2022/07/15 04:03:19;;;;;;;;;;;26.50;36.30;;;;;;1564642;74;1128;-68
2022/07/15 04:05:20;;;;;;;;;;;26.60;36.30;;;;;;1559285;74;568;-68
2022/07/15 04:07:22;;;;;;;;;;;26.50;36.20;;;;;;1563752;74;690;-69
2022/07/15 04:09:24;;;;;;;;;;;26.50;36.30;;;;;;1564443;74;698;-69
2022/07/15 04:11:26;;;;;;;;;;;26.50;36.30;;;;;;1569021;74;788;-70
2022/07/15 04:13:28;;;;;;;;;;;26.50;36.30;;;;;;1570561;74;1075;-69
2022/07/15 04:15:30;;;;;;;;;;;26.50;36.30;;;;;;1571065;74;789;-68
2022/07/15 04:17:32;;;;;;;;;;;26.50;36.30;;;;;;1569171;74;1938;-68
2022/07/15 04:19:34;;;;;;;;;;;26.60;36.40;;;;;;1569251;74;690;-68
2022/07/15 04:21:36;;;;;;;;;;;26.50;36.40;;;;;;1575832;74;1151;-69
2022/07/15 04:23:38;;;;;;;;;;;26.50;36.30;;;;;;1563333;74;689;-70
2022/07/15 04:25:40;;;;;;;;;;;26.50;36.30;;;;;;1575791;74;733;-66
2022/07/15 04:27:42;;;;;;;;;;;26.50;36.30;;;;;;1572288;74;741;-68
2022/07/15 04:29:44;;;;;;;;;;;26.50;36.40;;;;;;1564822;74;789;-69
2022/07/15 04:31:45;;;;;;;;;;;26.60;36.40;;;;;;1551183;74;1188;-67
2022/07/15 04:33:47;;;;;;;;;;;26.50;36.40;;;;;;1563840;74;739;-67
2022/07/15 04:35:49;;;;;;;;;;;26.50;36.40;;;;;;1560238;74;755;-68
2022/07/15 04:37:51;;;;;;;;;;;26.60;36.40;;;;;;1565312;74;1938;-68
2022/07/15 04:39:53;;;;;;;;;;;26.50;36.50;;;;;;1556538;75;721;-67
2022/07/15 04:41:55;;;;;;;;;;;26.60;36.50;;;;;;1563101;74;1218;-65
2022/07/15 04:43:57;;;;;;;;;;;26.60;36.60;;;;;;1554241;74;793;-67
2022/07/15 04:45:58;;;;;;;;;;;26.60;36.50;;;;;;1560213;74;709;-68
2022/07/15 04:48:00;;;;;;;;;;;26.50;36.50;;;;;;1564164;74;624;-65
2022/07/15 04:52:24;;;;;;;;;;;26.50;36.40;;;;;;1547014;74;1618;-66
2022/07/15 04:54:26;;;;;;;;;;;26.50;36.40;;;;;;1558098;74;794;-68
2022/07/15 04:56:28;;;;;;;;;;;26.50;36.40;;;;;;1557921;74;788;-70
2022/07/15 04:58:29;;;;;;;;;;;26.50;36.40;;;;;;1555370;74;1936;-65
2022/07/15 05:00:31;;;;;;;;;;;26.50;36.30;;;;;;1567248;74;732;-66
2022/07/15 05:02:33;;;;;;;;;;;26.50;36.40;;;;;;1561129;74;1147;-65
2022/07/15 05:04:35;;;;;;;;;;;26.50;36.30;;;;;;1555596;74;774;-67
2022/07/15 05:06:37;;;;;;;;;;;26.50;36.30;;;;;;1562682;74;865;-65
2022/07/15 05:08:39;;;;;;;;;;;26.50;36.30;;;;;;1566000;74;888;-66
2022/07/15 05:10:41;;;;;;;;;;;26.60;36.30;;;;;;1560165;74;700;-68
2022/07/15 05:12:43;;;;;;;;;;;26.50;36.30;;;;;;1567508;74;1167;-65
2022/07/15 05:14:44;;;;;;;;;;;26.40;36.40;;;;;;1563491;74;741;-67
2022/07/15 05:16:46;;;;;;;;;;;26.50;36.50;;;;;;1574108;74;653;-67
2022/07/15 05:18:48;;;;;;;;;;;26.50;36.50;;;;;;1568531;74;1927;-65
2022/07/15 05:20:50;;;;;;;;;;;26.40;36.50;;;;;;1565350;74;734;-66
2022/07/15 05:22:52;;;;;;;;;;;26.40;36.80;;;;;;1567830;74;1159;-65
2022/07/15 05:24:54;;;;;;;;;;;26.50;36.70;;;;;;1572661;74;742;-68
2022/07/15 05:26:57;;;;;;;;;;;26.50;36.80;;;;;;1573073;74;755;-67
2022/07/15 05:28:58;;;;;;;;;;;26.60;36.70;;;;;;1572225;74;814;-67
2022/07/15 05:31:01;;;;;;;;;;;26.60;36.80;;;;;;1575236;74;834;-67
2022/07/15 05:33:03;;;;;;;;;;;26.60;36.70;;;;;;1565802;74;1108;-66
2022/07/15 05:35:05;;;;;;;;;;;26.60;36.60;;;;;;1568821;74;730;-68
2022/07/15 05:37:07;;;;;;;;;;;26.50;36.30;;;;;;1568986;74;900;-66
2022/07/15 05:39:08;;;;;;;;;;;26.60;35.70;;;;;;1571710;74;1901;-65
2022/07/15 05:41:10;;;;;;;;;;;26.50;35.70;;;;;;1566438;74;706;-64
2022/07/15 05:43:12;;;;;;;;;;;26.50;35.60;;;;;;1568587;74;1207;-66
2022/07/15 05:45:14;;;;;;;;;;;26.60;35.30;;;;;;1555514;74;1498;-66
2022/07/15 05:47:16;;;;;;;;;;;26.40;35.20;;;;;;1563080;74;796;-65
2022/07/15 05:49:18;;;;;;;;;;;26.50;35.10;;;;;;1573461;74;701;-64
2022/07/15 05:51:20;;;;;;;;;;;26.40;35.10;;;;;;1569376;74;644;-66
2022/07/15 05:53:22;;;;;;;;;;;26.40;35.10;;;;;;1564862;74;1128;-64
2022/07/15 05:55:24;;;;;;;;;;;26.40;35.10;;;;;;1567768;74;748;-65
2022/07/15 05:57:25;;;;;;;;;;;26.40;34.80;;;;;;1572555;74;708;-64
2022/07/15 05:59:29;;;;;;;;;;;26.40;34.70;;;;;;1562542;74;1951;-64
2022/07/15 06:01:31;;;;;;;;;;;26.50;34.30;;;;;;1569059;74;1055;-65
2022/07/15 06:03:33;;;;;;;;;;;26.50;33.90;;;;;;1568098;74;1100;-65
2022/07/15 06:05:35;;;;;;;;;;;26.40;33.80;;;;;;1561886;74;879;-64
2022/07/15 06:07:37;;;;;;;;;;;26.40;34.10;;;;;;1565378;74;767;-64
2022/07/15 06:09:38;;;;;;;;;;;26.40;34.10;;;;;;1555272;74;751;-62
2022/07/15 06:11:40;;;;;;;;;;;26.50;34.10;;;;;;1565387;74;1151;-68
2022/07/15 06:13:42;;;;;;;;;;;26.50;34.10;;;;;;1571098;74;748;-64
2022/07/15 06:15:44;;;;;;;;;;;26.50;33.90;;;;;;1573490;74;812;-66
2022/07/15 06:17:46;;;;;;;;;;;26.50;33.80;;;;;;1560098;74;774;-64
2022/07/15 06:19:48;;;;;;;;;;;26.40;32.20;;;;;;1568363;74;731;-64
2022/07/15 06:21:50;;;;;;;;;;;26.30;33.60;;;;;;1567482;74;1150;-65
2022/07/15 06:23:52;;;;;;;;;;;26.10;33.50;;;;;;1567127;74;744;-64
2022/07/15 06:25:55;;;;;;;;;;;26.20;33.60;;;;;;1579020;74;793;-65
2022/07/15 06:27:57;;;;;;;;;;;26.10;33.50;;;;;;1562266;74;2067;-67
2022/07/15 06:29:59;;;;;;;;;;;26.20;33.80;;;;;;1567095;74;675;-66
2022/07/15 06:32:01;;;;;;;;;;;26.20;33.80;;;;;;1574596;74;1147;-69
2022/07/15 06:34:03;;;;;;;;;;;26.20;33.70;;;;;;1561261;74;1069;-68
2022/07/15 06:36:05;;;;;;;;;;;26.20;33.70;;;;;;1560858;74;712;-65
2022/07/15 06:38:07;;;;;;;;;;;26.20;33.70;;;;;;1564997;74;1935;-65
2022/07/15 06:40:09;;;;;;;;;;;26.20;33.80;;;;;;1572067;74;815;-64
2022/07/15 06:42:11;;;;;;;;;;;26.30;33.90;;;;;;1569327;74;1607;-65
2022/07/15 06:44:13;;;;;;;;;;;26.30;33.80;;;;;;1556126;74;735;-65
2022/07/15 06:46:15;;;;;;;;;;;26.30;33.80;;;;;;1567460;74;786;-68
2022/07/15 06:48:17;;;;;;;;;;;26.30;33.60;;;;;;1565435;74;777;-65
2022/07/15 06:50:22;;;;;;;;;;;26.40;33.10;;;;;;1560992;74;667;-66
2022/07/15 06:52:22;;;;;;;;;;;26.40;33.00;;;;;;1558583;74;1762;-64
2022/07/15 06:54:24;;;;;;;;;;;26.40;32.90;;;;;;1561686;74;779;-63
2022/07/15 06:56:28;;;;;;;;;;;26.50;32.80;;;;;;1558880;74;738;-65
2022/07/15 06:58:30;;;;;;;;;;;26.40;33.20;;;;;;1563867;74;1920;-65
2022/07/15 07:00:31;;;;;;;;;;;26.40;32.70;;;;;;1563757;74;776;-66
2022/07/15 07:02:33;;;;;;;;;;;26.40;33.00;;;;;;1556276;74;1149;-65
2022/07/15 07:04:35;;;;;;;;;;;26.50;33.10;;;;;;1566149;74;796;-65
2022/07/15 07:06:37;;;;;;;;;;;26.40;32.10;;;;;;1570748;74;844;-65
2022/07/15 07:08:39;;;;;;;;;;;26.40;32.80;;;;;;1564675;74;888;-62
2022/07/15 07:10:41;;;;;;;;;;;26.40;32.20;;;;;;1569600;74;730;-64
2022/07/15 07:12:43;;;;;;;;;;;26.40;32.00;;;;;;1564650;74;1175;-64
2022/07/15 07:14:45;;;;;;;;;;;26.40;32.80;;;;;;1572242;74;750;-65
2022/07/15 07:16:46;;;;;;;;;;;26.40;32.00;;;;;;1574215;74;672;-66
2022/07/15 07:18:50;;;;;;;;;;;26.50;32.20;;;;;;1555206;74;1932;-64
2022/07/15 07:20:52;;;;;;;;;;;26.40;32.50;;;;;;1572502;74;830;-65
2022/07/15 07:22:54;;;;;;;;;;;26.40;32.20;;;;;;1562666;74;1109;-67
2022/07/15 07:24:56;;;;;;;;;;;26.50;31.80;;;;;;1571931;74;718;-68
2022/07/15 07:26:58;;;;;;;;;;;26.50;32.10;;;;;;1564773;74;664;-67
2022/07/15 07:28:59;;;;;;;;;;;26.50;31.50;;;;;;1566298;74;705;-69
2022/07/15 07:31:01;;;;;;;;;;;26.50;31.40;;;;;;1564620;74;749;-65
2022/07/15 07:33:04;;;;;;;;;;;26.50;31.80;;;;;;1565383;74;1140;-66
2022/07/15 07:35:06;;;;;;;;;;;26.50;32.10;;;;;;1566287;74;772;-69
2022/07/15 07:37:09;;;;;;;;;;;26.60;31.00;;;;;;1574984;74;845;-66
2022/07/15 07:39:11;;;;;;;;;;;26.50;31.90;;;;;;1577540;74;1909;-67
2022/07/15 07:41:13;;;;;;;;;;;26.60;31.60;;;;;;1561632;74;706;-66
2022/07/15 07:43:18;;;;;;;;;;;26.50;31.80;;;;;;1569102;74;1172;-67
2022/07/15 07:45:20;;;;;;;;;;;26.60;32.00;;;;;;1560657;75;697;-66
2022/07/15 07:47:22;;;;;;;;;;;26.50;32.10;;;;;;1576561;74;700;-65
2022/07/15 07:49:24;;;;;;;;;;;26.60;31.80;;;;;;1577461;74;652;-66
2022/07/15 07:51:26;;;;;;;;;;;26.60;31.60;;;;;;1563564;74;739;-66
2022/07/15 07:53:27;;;;;;;;;;;26.60;31.80;;;;;;1576373;74;1159;-67
2022/07/15 07:55:29;;;;;;;;;;;26.70;31.80;;;;;;1561773;74;712;-67
2022/07/15 07:57:32;;;;;;;;;;;26.70;31.20;;;;;;1573726;74;800;-67
2022/07/15 07:59:34;;;;;;;;;;;26.70;32.00;;;;;;1562663;74;1927;-69
2022/07/15 08:01:36;;;;;;;;;;;26.80;32.00;;;;;;1562314;74;1150;-67
2022/07/15 08:03:38;;;;;;;;;;;26.70;31.30;;;;;;1577023;74;711;-65
2022/07/15 08:05:39;;;;;;;;;;;26.80;31.80;;;;;;1564528;74;739;-67
2022/07/15 08:07:41;;;;;;;;;;;26.80;31.30;;;;;;1583490;74;705;-69
2022/07/15 08:09:43;;;;;;;;;;;26.80;31.60;;;;;;1561696;74;805;-66
2022/07/15 08:11:45;;;;;;;;;;;26.80;31.10;;;;;;1565963;74;1160;-65
2022/07/15 08:13:47;;;;;;;;;;;26.80;31.60;;;;;;1566920;74;766;-68
2022/07/15 08:15:49;;;;;;;;;;;26.90;31.50;;;;;;1563105;74;756;-64
2022/07/15 08:17:51;;;;;;;;;;;26.90;31.50;;;;;;1570509;74;742;-66
2022/07/15 08:19:54;;;;;;;;;;;26.90;31.60;;;;;;1564006;74;1934;-66
2022/07/15 08:21:56;;;;;;;;;;;26.90;31.30;;;;;;1571257;74;1155;-67
2022/07/15 08:23:58;;;;;;;;;;;27.00;32.10;;;;;;1572103;74;1093;-66
2022/07/15 08:26:00;;;;;;;;;;;27.00;32.20;;;;;;1576754;74;702;-66
2022/07/15 08:28:02;;;;;;;;;;;27.00;31.70;;;;;;1566394;74;768;-65
2022/07/15 08:30:04;;;;;;;;;;;26.90;31.50;;;;;;1566879;74;669;-66
2022/07/15 08:32:06;;;;;;;;;;;26.90;31.60;;;;;;1568354;74;1155;-66
2022/07/15 08:34:08;;;;;;;;;;;26.90;31.50;;;;;;1558581;74;1666;-66
2022/07/15 08:36:11;;;;;;;;;;;26.90;31.20;;;;;;1567389;74;708;-67
2022/07/15 08:38:13;;;;;;;;;;;26.90;31.60;;;;;;1572815;75;714;-67
2022/07/15 08:40:15;;;;;;;;;;;26.90;31.80;;;;;;1570951;74;1950;-66
2022/07/15 08:42:18;;;;;;;;;;;26.90;31.60;;;;;;1573673;74;1190;-66
2022/07/15 08:44:20;;;;;;;;;;;26.90;31.80;;;;;;1575099;74;734;-67
2022/07/15 08:46:21;;;;;;;;;;;26.90;31.80;;;;;;1567265;74;732;-66
2022/07/15 08:48:24;;;;;;;;;;;26.90;31.60;;;;;;1571846;75;741;-66
2022/07/15 08:50:26;;;;;;;;;;;26.90;31.20;;;;;;1568498;74;699;-67
2022/07/15 08:52:28;;;;;;;;;;;27.00;32.40;;;;;;1565863;74;1104;-65
2022/07/15 08:54:30;;;;;;;;;;;26.90;31.60;;;;;;1570705;74;795;-65
2022/07/15 08:56:34;;;;;;;;;;;26.90;31.70;;;;;;1565406;74;747;-66
2022/07/15 08:58:37;;;;;;;;;;;26.90;31.60;;;;;;1568281;74;749;-66
2022/07/15 09:00:39;;;;;;;;;;;27.00;32.20;;;;;;1561536;74;1922;-65
2022/07/15 09:02:41;;;;;;;;;;;27.10;31.60;;;;;;1564198;74;1112;-67
2022/07/15 09:05:01;;;;;;;;;;;27.10;32.10;;;;;;1560675;74;767;-65
2022/07/15 09:07:03;;;;;;;;;;;27.10;31.20;;;;;;1567879;74;800;-66
2022/07/15 09:09:23;;;;;;;;;;;27.00;32.00;;;;;;1563985;74;799;-66
2022/07/15 09:11:29;;;;;;;;;;;27.00;31.90;;;;;;1563965;74;1820;-66
2022/07/15 09:13:32;;;;;;;;;;;27.00;32.10;;;;;;1564881;74;1064;-66
2022/07/15 09:15:34;;;;;;;;;;;27.00;32.00;;;;;;1562341;74;942;-65
2022/07/15 09:17:36;;;;;;;;;;;26.90;31.50;;;;;;1564827;74;767;-66
2022/07/15 09:19:57;;;;;;;;;;;26.90;31.50;;;;;;1565781;74;1950;-66
2022/07/15 09:22:04;;;;;;;;;;;26.90;31.60;;;;;;1562785;75;1104;-65
2022/07/15 09:24:19;;;;;;;;;;;26.90;31.40;;;;;;1579809;74;669;-65
2022/07/15 09:26:26;;;;;;;;;;;27.00;31.60;;;;;;1569608;74;872;-63
2022/07/15 09:28:37;;;;;;;;;;;26.90;31.30;;;;;;1569201;74;713;-65
2022/07/15 09:37:42;;;;;;;;;;;26.90;31.70;;;;;;1564914;75;1576;-65
2022/07/15 09:39:56;;;;;;;;;;;26.90;31.70;;;;;;1558018;74;1943;-64
2022/07/15 09:42:00;;;;;;;;;;;26.90;31.70;;;;;;1571445;74;1243;-65
2022/07/15 09:44:03;;;;;;;;;;;26.90;31.70;;;;;;1564607;74;1914;-65
2022/07/15 09:46:06;;;;;;;;;;;27.00;32.30;;;;;;1565466;74;744;-64
2022/07/15 09:48:09;;;;;;;;;;;26.90;31.60;;;;;;1557336;75;747;-63
2022/07/15 09:50:11;;;;;;;;;;;26.90;31.50;;;;;;1568468;74;729;-65
2022/07/15 09:52:14;;;;;;;;;;;26.80;31.30;;;;;;1538254;76;1136;-66
2022/07/15 09:54:16;;;;;;;;;;;26.70;31.60;;;;;;1575604;74;711;-67
2022/07/15 09:56:22;;;;;;;;;;;26.70;31.50;;;;;;1573835;74;833;-66
2022/07/15 09:58:24;;;;;;;;;;;26.70;31.70;;;;;;1568020;74;659;-66
2022/07/15 10:00:26;;;;;;;;;;;26.70;31.80;;;;;;1564273;74;1880;-65
2022/07/15 10:02:28;;;;;;;;;;;26.70;31.80;;;;;;1553890;74;1177;-65
2022/07/15 10:04:30;;;;;;;;;;;26.70;31.80;;;;;;1558241;74;740;-66
2022/07/15 10:06:35;;;;;;;;;;;26.80;31.80;;;;;;1551161;74;744;-67
2022/07/15 10:08:36;;;;;;;;;;;26.80;31.80;;;;;;1552898;74;701;-66
2022/07/15 10:10:39;;;;;;;;;;;26.80;31.30;;;;;;1559460;75;804;-66
2022/07/15 10:12:49;;;;;;;;;;;26.70;31.20;;;;;;1565248;75;1147;-65
2022/07/15 10:15:01;;;;;;;;;;;26.70;31.60;;;;;;1558634;74;1384;-66
2022/07/15 10:17:23;;;;;;;;;;;26.70;31.80;;;;;;1564394;74;691;-65
2022/07/15 10:19:33;;;;;;;;;;;26.70;31.80;;;;;;1563186;74;2017;-65
2022/07/15 10:21:53;;;;;;;;;;;26.70;31.90;;;;;;1569531;74;734;-64
2022/07/15 10:23:56;;;;;;;;;;;26.80;31.90;;;;;;1553500;74;724;-66
2022/07/15 10:26:02;;;;;;;;;;;26.80;31.90;;;;;;1554089;74;725;-65
2022/07/15 10:28:10;;;;;;;;;;;26.80;31.90;;;;;;1551522;74;1109;-64
2022/07/15 10:30:12;;;;;;;;;;;26.90;31.80;;;;;;1553049;74;738;-66
2022/07/15 10:32:14;;;;;;;;;;;26.80;31.60;;;;;;1556344;74;1096;-66
2022/07/15 10:34:17;;;;;;;;;;;26.80;31.60;;;;;;1562993;74;764;-66
2022/07/15 10:36:19;;;;;;;;;;;26.70;31.80;;;;;;1568730;74;759;-65
2022/07/15 10:38:28;;;;;;;;;;;26.70;32.00;;;;;;1559304;74;775;-66
2022/07/15 10:40:48;;;;;;;;;;;26.80;32.00;;;;;;1568812;74;1923;-65
2022/07/15 10:43:01;;;;;;;;;;;26.80;31.90;;;;;;1567925;74;1227;-65
2022/07/15 10:45:04;;;;;;;;;;;26.70;32.00;;;;;;1570621;74;854;-64
2022/07/15 10:47:16;;;;;;;;;;;26.70;32.10;;;;;;1566454;74;735;-65
2022/07/15 10:49:19;;;;;;;;;;;26.60;32.20;;;;;;1562997;74;822;-65
2022/07/15 10:51:39;;;;;;;;;;;26.70;32.10;;;;;;1569886;74;834;-64
2022/07/15 10:53:45;;;;;;;;;;;26.70;32.20;;;;;;1562247;74;769;-64
2022/07/15 10:55:46;;;;;;;;;;;26.70;32.20;;;;;;1556698;74;743;-64
2022/07/15 10:57:50;;;;;;;;;;;26.70;32.20;;;;;;1561512;74;804;-64
2022/07/15 10:59:53;;;;;;;;;;;26.70;32.30;;;;;;1559779;74;1957;-64
2022/07/15 11:02:03;;;;;;;;;;;26.70;32.20;;;;;;1565002;75;1132;-64
2022/07/15 11:04:09;;;;;;;;;;;26.70;32.10;;;;;;1553323;74;723;-65
2022/07/15 11:06:11;;;;;;;;;;;26.80;31.90;;;;;;1551724;74;1823;-65
2022/07/15 11:08:33;;;;;;;;;;;26.70;32.10;;;;;;1558039;74;703;-64
2022/07/15 11:10:35;;;;;;;;;;;26.80;32.10;;;;;;1555178;74;709;-66
2022/07/15 11:12:38;;;;;;;;;;;26.90;31.90;;;;;;1561017;74;1152;-64
2022/07/15 11:14:47;;;;;;;;;;;26.80;31.30;;;;;;1559052;74;746;-64
2022/07/15 11:16:49;;;;;;;;;;;26.80;31.80;;;;;;1560164;74;721;-64
2022/07/15 11:18:52;;;;;;;;;;;26.80;32.00;;;;;;1523346;76;1150;-64
2022/07/15 11:20:54;;;;;;;;;;;26.90;31.80;;;;;;1561022;74;1900;-64
2022/07/15 11:22:56;;;;;;;;;;;26.90;31.80;;;;;;1555012;74;1596;-65
2022/07/15 11:24:58;;;;;;;;;;;26.90;31.60;;;;;;1573830;74;774;-65
2022/07/15 11:27:01;;;;;;;;;;;26.80;31.60;;;;;;1568182;74;736;-64
2022/07/15 11:29:02;;;;;;;;;;;26.90;31.50;;;;;;1574659;74;633;-65
2022/07/15 11:31:04;;;;;;;;;;;26.90;31.40;;;;;;1571563;74;711;-64
2022/07/15 11:33:13;;;;;;;;;;;26.90;31.30;;;;;;1570310;74;1150;-64
2022/07/15 11:35:14;;;;;;;;;;;26.90;31.30;;;;;;1554919;74;717;-64
2022/07/15 11:37:19;;;;;;;;;;;26.80;31.50;;;;;;1561663;74;761;-64
2022/07/15 11:39:30;;;;;;;;;;;26.90;31.50;;;;;;1553698;74;737;-64
2022/07/15 11:46:19;;;;;;;;;;;26.90;31.40;;;;;;1568257;74;786;-64
2022/07/15 11:48:21;;;;;;;;;;;26.80;31.30;;;;;;1568736;74;822;-64
2022/07/15 11:50:23;;;;;;;;;;;26.80;31.20;;;;;;1559015;74;686;-64
2022/07/15 11:52:25;;;;;;;;;;;26.70;31.30;;;;;;1553997;74;1137;-63
2022/07/15 11:54:27;;;;;;;;;;;26.70;31.20;;;;;;1552166;74;760;-65
2022/07/15 11:56:29;;;;;;;;;;;26.80;31.00;;;;;;1554778;74;736;-65
2022/07/15 11:58:31;;;;;;;;;;;26.70;31.00;;;;;;1559704;75;780;-64
2022/07/15 12:00:33;;;;;;;;;;;26.70;31.20;;;;;;1561198;74;1943;-63
2022/07/15 12:02:35;;;;;;;;;;;26.70;30.30;;;;;;1558919;74;1148;-64
2022/07/15 12:04:37;;;;;;;;;;;26.70;30.30;;;;;;1569588;74;814;-64
2022/07/15 12:06:39;;;;;;;;;;;26.60;31.00;;;;;;1558305;74;754;-64
2022/07/15 12:08:44;;;;;;;;;;;26.60;31.30;;;;;;1576358;74;746;-64
2022/07/15 12:10:46;;;;;;;;;;;26.60;31.20;;;;;;1567629;74;807;-64
2022/07/15 12:12:54;;;;;;;;;;;26.60;31.30;;;;;;1563939;74;1147;-65
2022/07/15 12:14:56;;;;;;;;;;;26.70;31.30;;;;;;1562453;74;783;-65
2022/07/15 12:16:58;;;;;;;;;;;26.60;31.30;;;;;;1565951;74;764;-64
2022/07/15 12:19:01;;;;;;;;;;;26.70;31.10;;;;;;1558033;74;1560;-64
2022/07/15 12:21:03;;;;;;;;;;;26.70;30.30;;;;;;1552678;74;2071;-64
2022/07/15 12:23:09;;;;;;;;;;;26.50;29.90;;;;;;1557116;74;1124;-64
2022/07/15 12:25:12;;;;;;;;;;;26.50;31.20;;;;;;1570462;74;726;-65
2022/07/15 12:27:14;;;;;;;;;;;26.50;31.30;;;;;;1566044;74;1822;-64
2022/07/15 12:29:17;;;;;;;;;;;26.50;31.30;;;;;;1558927;74;933;-64